Ottawa Macdonald-Cartier International Airport

METAR KMSS TAF KMSS
-3 °C
°C
-
°C
1h
Alter
00:45:26
LT
23:45
UTC
0 ft

2.000

4.000

6.000

8.000

10.000

FEW 2.000
BKN 3.700
OVC 6.500
VFR
<?= Yii::t('app', 'Wind direction') ?> <?= Yii::t('app', 'of'); ?>
110°
07:24
Sonne auf
86%
Luftfeuchtigkeit
Windscherung
Geschlossen/Schnee
RWY-Sichtweite
RWY Zustand
Vert. Sichtweite
Min. Sichtbarkeit
CAVOK
Trend
Korrektur
Besonderer Bericht
30,00 inHg
QNH
METAR KMSS 272153Z AUTO 11003KT 10SM FEW020 BKN037 OVC065 M03/M05 A3000 RMK AO2 SNE25 SLP168 P0000 T10331050
Himmel bedeckt
3 kt
3 kt
18:00
MVFR
5 kt
19:00
MVFR
5 kt
20:00
MVFR
5 kt
21:00
MVFR
5 kt
22:00
MVFR
5 kt
23:00
VFR
7 kt
00:00
VFR
7 kt
10 mi
Sichtweite
3.700 ft
Wolkendecke
3 kt
Wind
metar-taf.com/CYOW

Metar-Taf.com

Visueller Decoder

Wir und Dritte verfolgen dein Internetverhalten auf unserer Website mit Cookies. Wenn du fortfährst, gehen wir davon aus, dass du mit unserer Cookie-Richtlinie einverstanden bist.